»·PEaware :: N407CH L88-KSBP

N407CH :: L88-KSBP

FLIGHT INFORMATION

Flight Status: Arrived
Operator: Privately registered:
United States
More flights under this callsign
Pilot: Spencer G. (30564)
Aircraft: CESSNA 172 SKYHAWK
(C172)
More flights by this aircraft type
Origin: L88 New Cuyama
United States
Destination: KSBP San Luis Co Regl
United States
More flights between these airports :: More routes between these airports
Route:
File this flight plan on PilotEdge
Remarks:
Altitude:
(Current/Filed)
6,500ft
Speed:
(Current/Filed)
120kts
Departed: 30-Jul-20 03:41 PM
Arrived: 30-Jul-20 04:16 PM
Distance/Time
Traveled:
50nm/0:35
Distance/Time
To Go:
Arrived

Flight Plot

Page will automatically refresh every two minutes.


Map Options




Map Legend


Flown Route
Filed Route
Departure Airport
Arrival Airport
Navaid (VOR, NDB)
Fix

Horizontal Profiles

Position Reports

Time Latitude Longitude Heading Altitude Ground
Speed
30-Jul-20 15:32 34.942639 -119.690621 350 2156ft 0kts
30-Jul-20 15:33 34.942639 -119.690621 350 2156ft 0kts
30-Jul-20 15:34 34.942639 -119.690621 350 2156ft 0kts
30-Jul-20 15:35 34.942639 -119.690621 350 2156ft 0kts
30-Jul-20 15:36 34.942639 -119.690621 350 2156ft 0kts
30-Jul-20 15:37 34.942639 -119.690621 350 2156ft 0kts
30-Jul-20 15:38 34.942710 -119.690659 320 2156ft 5kts
30-Jul-20 15:39 34.942516 -119.691271 191 2155ft 0kts
30-Jul-20 15:40 34.939366 -119.683510 119 2270ft 70kts
30-Jul-20 15:41 34.930617 -119.662023 127 2820ft 74kts
30-Jul-20 15:42 34.916276 -119.665204 272 3319ft 81kts
30-Jul-20 15:43 34.928982 -119.690727 292 3752ft 87kts
30-Jul-20 15:44 34.941429 -119.716343 291 4149ft 88kts
30-Jul-20 15:45 34.953232 -119.742639 292 4524ft 88kts
30-Jul-20 15:46 34.965834 -119.768780 293 4876ft 90kts
30-Jul-20 15:47 34.977959 -119.795479 294 5213ft 91kts
30-Jul-20 15:48 34.990473 -119.822331 292 5535ft 91kts
30-Jul-20 15:49 35.004163 -119.848821 298 5838ft 93kts
30-Jul-20 15:50 35.018589 -119.875229 298 6137ft 94kts
30-Jul-20 15:51 35.032658 -119.902114 297 6417ft 95kts
30-Jul-20 15:52 35.046962 -119.931960 294 6487ft 109kts
30-Jul-20 15:53 35.061528 -119.963820 293 6365ft 106kts
30-Jul-20 15:54 35.073492 -119.995063 289 6340ft 97kts
30-Jul-20 15:55 35.084421 -120.025356 287 6425ft 97kts
30-Jul-20 15:56 35.095796 -120.055607 302 6514ft 100kts
30-Jul-20 15:57 35.113544 -120.083002 292 6496ft 106kts
30-Jul-20 15:58 35.122276 -120.117125 280 6457ft 103kts
30-Jul-20 15:59 35.129208 -120.150414 280 6501ft 98kts
30-Jul-20 16:00 35.134835 -120.183424 277 6516ft 99kts
30-Jul-20 16:01 35.140240 -120.216700 278 6534ft 99kts
30-Jul-20 16:02 35.144808 -120.250078 272 6538ft 99kts
30-Jul-20 16:03 35.149887 -120.283793 278 6524ft 101kts
30-Jul-20 16:04 35.156333 -120.317316 280 6516ft 101kts
30-Jul-20 16:05 35.162838 -120.350293 279 6503ft 101kts
30-Jul-20 16:06 35.170260 -120.384716 284 6195ft 107kts
30-Jul-20 16:07 35.179470 -120.420206 283 5630ft 109kts
30-Jul-20 16:08 35.188160 -120.455466 284 5112ft 107kts
30-Jul-20 16:09 35.195276 -120.491125 280 4468ft 110kts
30-Jul-20 16:10 35.201500 -120.527817 280 3642ft 110kts
30-Jul-20 16:11 35.207117 -120.564452 279 2801ft 109kts
30-Jul-20 16:12 35.214702 -120.599999 295 1738ft 98kts
30-Jul-20 16:13 35.225179 -120.619570 302 870ft 54kts
30-Jul-20 16:14 35.233067 -120.633490 303 260ft 47kts
30-Jul-20 16:15 35.237524 -120.639913 7 216ft 0kts
30-Jul-20 16:16 35.238167 -120.639800 1 216ft 9kts
30-Jul-20 16:17 35.238203 -120.639599 205 216ft 0kts
30-Jul-20 16:18 35.238203 -120.639599 205 216ft 0kts
30-Jul-20 16:19 35.238203 -120.639599 205 216ft 0kts
30-Jul-20 16:20 35.238203 -120.639599 205 216ft 0kts
30-Jul-20 16:21 35.238203 -120.639599 205 216ft 0kts
30-Jul-20 16:22 35.238203 -120.639599 205 216ft 0kts
30-Jul-20 16:23 35.238203 -120.639599 205 216ft 0kts
30-Jul-20 16:24 35.238203 -120.639599 205 216ft 0kts
30-Jul-20 16:25 35.238203 -120.639599 205 216ft 0kts
30-Jul-20 16:26 35.238203 -120.639599 205 216ft 0kts
30-Jul-20 16:27 35.238203 -120.639599 205 216ft 0kts

Navigation Log

Ident Type
Flight plan parsing failed, navigation log unavailable